Time;durP1;ratioP1;P1;durP2;ratioP2;P2;SDS_P1;SDS_P2;PMS_P1;PMS_P2;Temp;Humidity;BMP_temperature;BMP_pressure;BME280_temperature;BME280_humidity;BME280_pressure;Samples;Min_cycle;Max_cycle;Signal;HPM_P1;HPM_P2
2022/09/04 00:01:59;;;;;;;4.63;4.13;;;20.30;99.90;;;;;;7335655;19;111193;-76
2022/09/04 00:04:42;;;;;;;6.68;4.00;;;20.30;99.90;;;;;;7335517;19;110285;-77
2022/09/04 00:07:32;;;;;;;4.72;4.32;;;20.20;99.90;;;;;;7336684;19;110167;-77
2022/09/04 00:10:18;;;;;;;4.95;4.45;;;20.20;99.90;;;;;;7342117;19;111031;-76
2022/09/04 00:12:47;;;;;;;8.25;4.93;;;20.00;99.90;;;;;;7337578;19;110214;-77
2022/09/04 00:15:26;;;;;;;4.65;4.13;;;19.90;99.90;;;;;;7337101;19;110728;-77
2022/09/04 00:18:12;;;;;;;5.78;4.38;;;19.90;99.90;;;;;;7335319;19;109220;-76
2022/09/04 00:20:44;;;;;;;9.73;4.43;;;19.80;99.90;;;;;;7337725;19;112130;-77
2022/09/04 00:23:50;;;;;;;5.32;4.60;;;19.60;99.90;;;;;;7335833;19;111227;-76
2022/09/04 00:26:37;;;;;;;7.10;4.80;;;19.70;99.90;;;;;;7335270;19;109590;-76
2022/09/04 00:29:17;;;;;;;5.73;4.33;;;19.70;99.90;;;;;;7335951;19;109893;-76
2022/09/04 00:31:52;;;;;;;8.63;4.72;;;19.60;99.90;;;;;;7334984;19;111250;-77
2022/09/04 00:34:25;;;;;;;9.35;4.78;;;19.50;99.90;;;;;;7342494;19;109936;-76
2022/09/04 00:37:00;;;;;;;8.23;4.90;;;19.50;99.90;;;;;;7335873;19;110153;-76
2022/09/04 00:39:36;;;;;;;6.10;4.75;;;19.50;99.90;;;;;;7336844;19;109872;-76
2022/09/04 00:42:23;;;;;;;6.43;4.80;;;19.50;99.90;;;;;;7335617;19;110432;-77
2022/09/04 00:45:11;;;;;;;5.30;4.22;;;19.50;99.90;;;;;;7334582;19;111645;-77
2022/09/04 00:48:16;;;;;;;5.97;4.50;;;19.50;99.90;;;;;;7334386;19;109184;-77
2022/09/04 00:50:58;;;;;;;4.60;4.20;;;19.50;99.90;;;;;;7336024;19;110013;-76
2022/09/04 00:53:50;;;;;;;8.27;4.68;;;19.50;99.90;;;;;;7334432;19;110143;-76
2022/09/04 00:56:32;;;;;;;6.07;5.28;;;19.40;99.90;;;;;;7337486;19;109597;-76
2022/09/04 00:59:29;;;;;;;7.47;4.97;;;19.40;99.90;;;;;;7341310;19;110496;-76
2022/09/04 01:02:24;;;;;;;7.25;4.95;;;19.40;99.90;;;;;;7335218;19;109795;-76
2022/09/04 01:05:15;;;;;;;7.90;5.00;;;19.30;99.90;;;;;;7335040;19;112385;-76
2022/09/04 01:08:22;;;;;;;5.20;4.70;;;19.30;99.90;;;;;;7335934;19;110274;-76
2022/09/04 01:11:20;;;;;;;9.77;5.00;;;19.40;99.90;;;;;;7336260;19;110796;-76
2022/09/04 01:14:12;;;;;;;6.65;4.30;;;19.30;99.90;;;;;;7336374;19;110475;-76
2022/09/04 01:17:15;;;;;;;5.63;4.30;;;19.30;99.90;;;;;;7340838;19;110085;-76
2022/09/04 01:20:02;;;;;;;6.72;5.03;;;19.30;99.90;;;;;;7344264;19;109369;-77
2022/09/04 01:22:50;;;;;;;10.25;4.70;;;19.20;99.90;;;;;;7343446;19;109722;-76
2022/09/04 01:25:32;;;;;;;6.78;4.72;;;19.20;99.90;;;;;;7348414;19;110976;-76
2022/09/04 01:28:36;;;;;;;6.82;4.60;;;19.10;99.90;;;;;;7340468;19;110205;-77
2022/09/04 01:31:13;;;;;;;5.63;4.70;;;19.10;99.90;;;;;;7343305;19;110689;-76
2022/09/04 01:34:07;;;;;;;8.27;4.70;;;18.90;99.90;;;;;;7341419;19;110171;-76
2022/09/04 01:37:03;;;;;;;5.60;4.50;;;18.90;99.90;;;;;;7341776;19;109506;-77
2022/09/04 01:39:34;;;;;;;4.95;4.45;;;18.90;99.90;;;;;;7341422;19;110285;-76
2022/09/04 01:42:28;;;;;;;7.97;4.80;;;18.90;99.90;;;;;;7343831;19;109673;-76
2022/09/04 01:44:56;;;;;;;8.05;5.07;;;18.90;99.90;;;;;;7343423;19;110638;-76
2022/09/04 01:47:45;;;;;;;6.20;4.30;;;18.90;99.90;;;;;;7348113;19;111203;-76
2022/09/04 01:50:22;;;;;;;6.97;4.90;;;18.90;99.90;;;;;;7342119;19;110080;-76
2022/09/04 01:53:08;;;;;;;5.20;4.33;;;18.80;99.90;;;;;;7342055;19;110208;-77
2022/09/04 01:55:41;;;;;;;6.93;4.20;;;18.70;99.90;;;;;;7341097;19;109722;-76
2022/09/04 01:58:35;;;;;;;5.25;4.75;;;18.70;99.90;;;;;;7342800;19;113423;-76
2022/09/04 02:01:39;;;;;;;6.38;4.30;;;18.70;99.90;;;;;;7340486;19;114348;-76
2022/09/04 02:04:38;;;;;;;5.90;4.40;;;18.70;99.90;;;;;;7341628;19;109737;-76
2022/09/04 02:07:37;;;;;;;8.13;4.70;;;18.70;99.90;;;;;;7341694;19;110163;-76
2022/09/04 02:10:07;;;;;;;6.03;4.65;;;18.70;99.90;;;;;;7342677;19;111316;-76
2022/09/04 02:12:57;;;;;;;8.15;4.78;;;18.60;99.90;;;;;;7345594;19;110328;-76
2022/09/04 02:15:34;;;;;;;4.85;4.45;;;18.60;99.90;;;;;;7338205;19;111215;-76
2022/09/04 02:18:11;;;;;;;6.28;4.82;;;18.60;99.90;;;;;;7340610;19;109409;-77
2022/09/04 02:20:51;;;;;;;5.65;4.78;;;18.50;99.90;;;;;;7341352;19;109411;-76
2022/09/04 02:23:43;;;;;;;5.15;4.72;;;18.50;99.90;;;;;;7339616;19;110835;-76
2022/09/04 02:26:18;;;;;;;6.72;5.57;;;18.60;99.90;;;;;;7342519;19;109452;-76
2022/09/04 02:29:10;;;;;;;5.03;4.43;;;18.50;99.90;;;;;;7337799;19;109830;-76
2022/09/04 02:31:48;;;;;;;6.75;4.93;;;18.60;99.90;;;;;;7339479;19;111281;-76
2022/09/04 02:34:37;;;;;;;5.38;4.32;;;18.50;99.90;;;;;;7340621;19;109426;-76
2022/09/04 02:37:21;;;;;;;6.30;4.40;;;18.60;99.90;;;;;;7344664;19;111212;-76
2022/09/04 02:40:11;;;;;;;7.80;4.45;;;18.60;99.90;;;;;;7341730;19;109389;-76
2022/09/04 02:42:57;;;;;;;6.97;4.25;;;18.60;99.90;;;;;;7339738;19;110444;-77
2022/09/04 02:45:35;;;;;;;4.95;4.47;;;18.60;99.90;;;;;;7341567;19;113323;-76
2022/09/04 02:48:18;;;;;;;5.60;4.80;;;18.60;99.90;;;;;;7340449;19;111283;-76
2022/09/04 02:51:01;;;;;;;7.85;4.90;;;18.60;99.90;;;;;;7341702;19;110784;-76
2022/09/04 02:53:37;;;;;;;4.60;4.20;;;18.60;99.90;;;;;;7340933;19;113809;-76
2022/09/04 02:57:02;;;;;;;4.93;4.27;;;18.60;99.90;;;;;;7338259;19;110135;-76
2022/09/04 02:59:38;;;;;;;4.38;3.97;;;18.60;99.90;;;;;;7335693;19;109503;-76
2022/09/04 03:02:23;;;;;;;5.60;4.40;;;18.50;99.90;;;;;;7338619;19;110770;-76
2022/09/04 03:05:06;;;;;;;5.13;4.45;;;18.50;99.90;;;;;;7336808;19;109442;-76
2022/09/04 03:07:41;;;;;;;4.85;4.45;;;18.50;99.90;;;;;;7335846;19;112248;-76
2022/09/04 03:10:19;;;;;;;6.50;4.13;;;18.50;99.90;;;;;;7336695;19;109547;-76
2022/09/04 03:12:58;;;;;;;;;;;18.50;99.90;;;;;;7337442;19;110635;-76
2022/09/04 03:15:28;;;;;;;5.28;4.70;;;18.40;99.90;;;;;;7339309;19;111197;-76
2022/09/04 03:18:01;;;;;;;4.63;4.22;;;18.40;99.90;;;;;;7337594;19;110529;-76
2022/09/04 03:20:32;;;;;;;4.90;4.40;;;18.40;99.90;;;;;;7336378;19;109589;-76
2022/09/04 03:23:24;;;;;;;5.03;4.53;;;18.40;99.90;;;;;;7334564;19;113388;-76
2022/09/04 03:26:12;;;;;;;5.25;4.35;;;18.40;99.90;;;;;;7341925;19;110097;-76
2022/09/04 03:29:05;;;;;;;4.35;3.95;;;18.40;99.90;;;;;;7333886;19;110170;-76
2022/09/04 03:32:02;;;;;;;5.88;4.68;;;18.40;99.90;;;;;;7335112;19;109951;-76
2022/09/04 03:34:54;;;;;;;4.60;4.20;;;18.40;99.90;;;;;;7337370;19;110153;-76
2022/09/04 03:38:00;;;;;;;7.05;4.80;;;18.40;99.90;;;;;;7337601;19;110393;-77
2022/09/04 03:40:41;;;;;;;5.63;4.70;;;18.40;99.90;;;;;;7335063;19;109984;-76
2022/09/04 03:43:35;;;;;;;5.10;4.40;;;18.40;99.90;;;;;;7334366;19;109894;-76
2022/09/04 03:46:41;;;;;;;7.43;4.47;;;18.40;99.90;;;;;;7335172;19;111449;-76
2022/09/04 03:49:25;;;;;;;6.68;4.35;;;18.40;99.90;;;;;;7332654;19;109762;-76
2022/09/04 03:51:55;;;;;;;5.60;4.82;;;18.40;99.90;;;;;;7341118;19;110401;-77
2022/09/04 03:54:49;;;;;;;6.38;4.78;;;18.40;99.90;;;;;;7336576;19;110408;-76
2022/09/04 03:57:26;;;;;;;7.18;4.57;;;18.50;99.90;;;;;;7336111;19;110807;-76
2022/09/04 04:00:02;;;;;;;5.68;5.15;;;18.50;99.90;;;;;;7334768;19;111410;-76
2022/09/04 04:02:56;;;;;;;5.05;4.55;;;18.40;99.90;;;;;;7332022;19;110096;-77
2022/09/04 04:05:48;;;;;;;5.85;5.30;;;18.40;99.90;;;;;;7334266;19;109891;-77
2022/09/04 04:08:39;;;;;;;5.57;5.07;;;18.40;99.90;;;;;;7333282;19;111095;-76
2022/09/04 04:11:23;;;;;;;7.57;5.57;;;18.40;99.90;;;;;;7335714;19;110166;-76
2022/09/04 04:14:24;;;;;;;6.47;5.15;;;18.40;99.90;;;;;;7344252;19;109890;-76
2022/09/04 04:17:07;;;;;;;6.10;4.80;;;18.30;99.90;;;;;;7338443;19;109866;-76
2022/09/04 04:19:47;;;;;;;5.47;4.85;;;18.30;99.90;;;;;;7338361;19;114409;-76
2022/09/04 04:22:27;;;;;;;5.72;5.13;;;18.30;99.90;;;;;;7338835;19;111457;-77
2022/09/04 04:25:10;;;;;;;5.57;4.82;;;18.30;99.90;;;;;;7337376;19;109610;-77
2022/09/04 04:27:57;;;;;;;11.75;5.10;;;18.20;99.90;;;;;;7337173;19;110465;-77
2022/09/04 04:30:34;;;;;;;6.65;5.30;;;18.20;99.90;;;;;;7337831;19;111226;-76
2022/09/04 04:33:02;;;;;;;6.85;5.30;;;18.20;99.90;;;;;;7335953;19;110235;-76
2022/09/04 04:35:38;;;;;;;12.13;5.28;;;18.10;99.90;;;;;;7338621;19;113538;-77
2022/09/04 04:38:35;;;;;;;10.90;4.97;;;18.10;99.90;;;;;;7341844;19;111131;-76
2022/09/04 04:42:04;;;;;;;7.63;5.17;;;18.10;99.90;;;;;;7337560;19;109805;-78
2022/09/04 04:48:31;;;;;;;9.02;4.80;;;18.00;99.90;;;;;;7332893;19;109498;-76
2022/09/04 04:51:39;;;;;;;5.50;5.00;;;18.00;99.90;;;;;;7335706;19;110731;-77
2022/09/04 04:54:27;;;;;;;7.10;5.13;;;18.00;99.90;;;;;;7339217;19;111363;-77
2022/09/04 04:57:03;;;;;;;9.65;4.68;;;17.90;99.90;;;;;;7339134;19;109400;-78
2022/09/04 05:00:02;;;;;;;8.02;5.43;;;17.90;99.90;;;;;;7338889;19;110444;-80
2022/09/04 05:03:07;;;;;;;4.97;4.55;;;17.90;99.90;;;;;;7337928;19;111464;-78
2022/09/04 05:05:59;;;;;;;6.07;5.05;;;17.90;99.90;;;;;;7344436;19;109419;-78
2022/09/04 05:08:32;;;;;;;6.68;4.75;;;17.90;99.90;;;;;;7338770;19;110262;-79
2022/09/04 05:11:10;;;;;;;6.60;4.40;;;17.90;99.90;;;;;;7340006;19;111246;-77
2022/09/04 05:13:58;;;;;;;9.85;4.93;;;18.00;99.90;;;;;;7339470;19;111126;-77
2022/09/04 05:16:47;;;;;;;5.55;4.88;;;18.10;99.90;;;;;;7338935;19;110857;-77
2022/09/04 05:19:57;;;;;;;5.95;4.90;;;18.10;99.90;;;;;;7343238;19;109617;-77
2022/09/04 05:22:41;;;;;;;7.53;4.72;;;18.10;99.90;;;;;;7342155;19;110445;-77
2022/09/04 05:25:55;;;;;;;6.68;5.47;;;18.10;99.90;;;;;;7342976;19;114489;-77
2022/09/04 05:29:07;;;;;;;5.45;4.80;;;18.20;99.90;;;;;;7339470;19;109998;-77
2022/09/04 05:31:43;;;;;;;7.85;4.75;;;18.20;99.90;;;;;;7347525;19;110154;-77
2022/09/04 05:34:44;;;;;;;5.93;4.57;;;18.20;99.90;;;;;;7340805;19;109528;-77
2022/09/04 05:37:21;;;;;;;8.50;5.32;;;18.30;99.90;;;;;;7341302;19;109491;-76
2022/09/04 05:39:55;;;;;;;5.28;4.40;;;18.30;99.90;;;;;;7341170;19;110521;-77
2022/09/04 05:42:57;;;;;;;4.97;4.47;;;18.40;99.90;;;;;;7344326;19;109236;-75
2022/09/04 05:45:48;;;;;;;5.55;5.05;;;18.60;99.90;;;;;;7341327;19;110160;-75
2022/09/04 05:48:40;;;;;;;25.63;4.90;;;18.60;99.90;;;;;;7342718;19;111379;-76
2022/09/04 05:51:46;;;;;;;7.60;6.13;;;18.70;99.90;;;;;;7342698;19;109536;-75
2022/09/04 05:54:35;;;;;;;7.55;4.63;;;18.70;99.90;;;;;;7342295;19;110411;-76
2022/09/04 05:57:05;;;;;;;11.40;5.30;;;18.80;99.90;;;;;;7349315;19;111131;-75
2022/09/04 05:59:42;;;;;;;6.32;5.60;;;18.80;99.90;;;;;;7342759;19;109418;-76
2022/09/04 06:02:20;;;;;;;6.25;4.65;;;18.90;99.90;;;;;;7337275;19;110475;-76
2022/09/04 06:04:53;;;;;;;6.63;5.00;;;18.90;99.90;;;;;;7342690;19;109158;-77
2022/09/04 06:07:37;;;;;;;8.15;4.93;;;18.90;99.90;;;;;;7341508;19;110671;-76
2022/09/04 06:10:23;;;;;;;8.57;4.53;;;19.00;99.90;;;;;;7338972;19;111384;-76
2022/09/04 06:13:40;;;;;;;10.48;5.20;;;19.00;99.90;;;;;;7342172;19;109424;-76
2022/09/04 06:16:10;;;;;;;7.47;5.13;;;19.00;99.90;;;;;;7337622;19;110744;-76
2022/09/04 06:18:40;;;;;;;8.77;6.05;;;18.90;99.90;;;;;;7336940;19;112302;-76
2022/09/04 06:21:25;;;;;;;8.60;4.88;;;19.00;99.90;;;;;;7342470;19;109624;-76
2022/09/04 06:24:30;;;;;;;10.13;5.00;;;19.10;99.90;;;;;;7337856;19;111191;-76
2022/09/04 06:26:57;;;;;;;7.45;5.70;;;19.20;99.90;;;;;;7336253;19;109447;-76
2022/09/04 06:29:36;;;;;;;6.13;4.70;;;19.30;99.90;;;;;;7333145;19;109502;-76
2022/09/04 06:32:22;;;;;;;4.90;4.50;;;19.40;99.90;;;;;;7334694;19;114278;-77
2022/09/04 06:35:22;;;;;;;8.60;4.63;;;19.60;99.90;;;;;;7338503;19;109883;-76
2022/09/04 06:38:11;;;;;;;6.57;4.35;;;19.70;99.90;;;;;;7334850;19;109915;-76
2022/09/04 06:41:00;;;;;;;8.93;4.75;;;19.90;99.90;;;;;;7336538;19;110460;-77
2022/09/04 06:43:33;;;;;;;5.95;4.50;;;19.90;99.90;;;;;;7343178;19;109526;-78
2022/09/04 06:46:03;;;;;;;6.15;4.93;;;20.10;99.90;;;;;;7336654;19;111033;-77
2022/09/04 06:48:55;;;;;;;7.80;5.43;;;20.10;99.90;;;;;;7335726;19;109874;-77
2022/09/04 06:51:52;;;;;;;8.90;4.97;;;20.20;99.90;;;;;;7337853;19;110458;-76
2022/09/04 06:54:50;;;;;;;7.00;4.70;;;20.30;99.90;;;;;;7340215;19;111098;-77
2022/09/04 06:57:56;;;;;;;9.63;4.65;;;20.40;99.90;;;;;;7340310;19;109401;-76
2022/09/04 07:00:28;;;;;;;6.68;4.05;;;20.50;99.90;;;;;;7339761;19;110429;-76
2022/09/04 07:03:28;;;;;;;7.75;4.80;;;20.60;99.90;;;;;;7336740;19;112404;-77
2022/09/04 07:06:22;;;;;;;8.18;4.20;;;20.70;99.90;;;;;;7339393;19;109329;-77
2022/09/04 07:09:10;;;;;;;5.90;5.13;;;20.90;99.90;;;;;;7344318;19;112141;-77
2022/09/04 07:11:59;;;;;;;6.55;4.75;;;20.90;99.90;;;;;;7340282;19;110147;-76
2022/09/04 07:15:01;;;;;;;8.75;5.72;;;21.00;99.90;;;;;;7338417;19;109551;-76
2022/09/04 07:17:33;;;;;;;6.45;5.53;;;21.10;99.90;;;;;;7336677;19;112296;-76
2022/09/04 07:20:20;;;;;;;5.75;5.10;;;21.20;99.90;;;;;;7341394;19;109614;-77
2022/09/04 07:23:09;;;;;;;8.73;6.50;;;21.30;99.90;;;;;;7339999;19;110460;-77
2022/09/04 07:25:43;;;;;;;11.75;7.50;;;21.50;99.90;;;;;;7339143;19;111342;-77
2022/09/04 07:28:32;;;;;;;11.18;6.22;;;21.50;99.90;;;;;;7338019;19;109822;-76
2022/09/04 07:31:19;;;;;;;9.20;7.30;;;21.70;99.90;;;;;;7337496;19;110453;-76
2022/09/04 07:33:57;;;;;;;11.30;6.80;;;21.80;99.90;;;;;;7344287;19;110170;-77
2022/09/04 07:36:35;;;;;;;10.35;6.85;;;21.80;99.90;;;;;;7338942;19;110176;-76
2022/09/04 07:39:29;;;;;;;8.00;6.50;;;21.90;99.90;;;;;;7340085;19;113608;-77
2022/09/04 07:42:10;;;;;;;7.22;6.05;;;22.10;99.90;;;;;;7338727;19;109475;-76
2022/09/04 07:45:06;;;;;;;10.20;7.25;;;22.20;99.90;;;;;;7339098;19;109235;-76
2022/09/04 07:47:41;;;;;;;12.05;7.38;;;22.30;99.90;;;;;;7338244;19;110671;-76
2022/09/04 07:50:24;;;;;;;10.85;7.57;;;22.40;99.90;;;;;;7338786;19;111108;-77
2022/09/04 07:53:00;;;;;;;10.00;7.15;;;22.50;99.90;;;;;;7339905;19;109851;-77
2022/09/04 07:55:39;;;;;;;13.38;7.15;;;22.70;99.90;;;;;;7336552;19;110811;-77
2022/09/04 07:58:27;;;;;;;7.40;6.70;;;22.70;99.90;;;;;;7344036;19;109832;-76
2022/09/04 08:01:22;;;;;;;7.63;6.22;;;22.90;99.90;;;;;;7336781;19;110835;-76
2022/09/04 08:04:01;;;;;;;10.40;7.80;;;23.00;99.90;;;;;;7338577;19;110256;-77
2022/09/04 08:06:50;;;;;;;8.55;7.63;;;23.10;99.90;;;;;;7338768;19;113175;-76
2022/09/04 08:09:36;;;;;;;8.43;7.15;;;23.20;99.90;;;;;;7337602;19;110138;-76
2022/09/04 08:12:43;;;;;;;10.48;7.78;;;23.40;99.90;;;;;;7337590;19;110771;-77
2022/09/04 08:15:20;;;;;;;9.77;7.60;;;23.50;99.90;;;;;;7338273;19;110549;-76
2022/09/04 08:17:58;;;;;;;10.50;8.02;;;23.60;99.90;;;;;;7338200;19;111263;-78
2022/09/04 08:20:25;;;;;;;;;;;23.60;99.90;;;;;;7339175;19;109513;-77
2022/09/04 08:23:04;;;;;;;11.65;7.50;;;23.70;99.90;;;;;;7343919;19;109851;-76
2022/09/04 08:25:50;;;;;;;;;;;23.80;99.90;;;;;;7341102;19;109269;-77
2022/09/04 08:28:35;;;;;;;7.80;6.10;;;23.90;99.90;;;;;;7347219;19;110913;-77
2022/09/04 08:31:17;;;;;;;7.80;6.65;;;24.00;99.90;;;;;;7342879;19;110963;-76
2022/09/04 08:34:02;;;;;;;8.68;5.32;;;24.10;99.90;;;;;;7343921;19;109957;-77
2022/09/04 08:36:51;;;;;;;7.10;5.72;;;24.30;99.90;;;;;;7344165;19;109680;-77
2022/09/04 08:39:44;;;;;;;6.32;5.72;;;24.40;99.90;;;;;;7344567;19;110482;-76
2022/09/04 08:42:30;;;;;;;6.25;4.60;;;24.40;99.90;;;;;;7342004;19;109782;-76
2022/09/04 08:45:21;;;;;;;7.47;4.43;;;24.50;99.90;;;;;;7347616;19;109378;-77
2022/09/04 08:48:35;;;;;;;5.97;3.92;;;24.60;99.90;;;;;;7344253;19;109474;-77
2022/09/04 08:51:20;;;;;;;6.22;4.28;;;24.70;99.90;;;;;;7342048;19;109717;-76
2022/09/04 08:54:14;;;;;;;5.07;4.53;;;24.80;99.90;;;;;;7345306;19;109700;-76
2022/09/04 08:57:09;;;;;;;6.75;4.40;;;24.90;99.90;;;;;;7340426;19;109868;-76
2022/09/04 09:00:08;;;;;;;4.20;3.78;;;25.00;99.90;;;;;;7344195;19;110551;-76
2022/09/04 09:02:56;;;;;;;5.22;3.35;;;25.10;99.90;;;;;;7342174;19;116478;-77
2022/09/04 09:05:45;;;;;;;3.78;2.95;;;25.20;99.90;;;;;;7344995;19;109218;-77
2022/09/04 09:08:15;;;;;;;4.28;2.50;;;25.30;99.90;;;;;;7342142;19;112449;-76
2022/09/04 09:11:19;;;;;;;4.07;3.10;;;25.40;99.90;;;;;;7347337;19;110158;-77
2022/09/04 09:14:12;;;;;;;5.65;3.05;;;25.50;99.90;;;;;;7343868;19;117846;-76
2022/09/04 09:16:48;;;;;;;6.95;2.72;;;25.60;99.90;;;;;;7340158;19;110090;-77
2022/09/04 09:19:54;;;;;;;3.33;2.45;;;25.60;99.90;;;;;;7343609;19;109356;-76
2022/09/04 09:23:12;;;;;;;4.90;2.50;;;25.70;99.30;;;;;;7343813;19;110766;-76
2022/09/04 09:26:05;;;;;;;5.03;2.40;;;25.70;99.50;;;;;;7339818;19;110358;-77
2022/09/04 09:28:56;;;;;;;2.90;2.50;;;25.80;99.60;;;;;;7340469;19;109950;-77
2022/09/04 09:31:38;;;;;;;3.90;2.40;;;25.90;99.20;;;;;;7337286;19;109847;-77
2022/09/04 09:34:24;;;;;;;5.90;2.25;;;26.10;98.60;;;;;;7338112;19;110173;-77
2022/09/04 09:37:22;;;;;;;6.28;2.25;;;26.20;98.30;;;;;;7343338;19;111070;-77
2022/09/04 09:40:18;;;;;;;4.43;1.90;;;26.20;97.90;;;;;;7337085;19;111406;-77
2022/09/04 09:42:59;;;;;;;2.40;1.42;;;26.20;97.70;;;;;;7338504;19;109587;-78
2022/09/04 09:45:35;;;;;;;4.53;2.20;;;26.30;97.70;;;;;;7337854;19;109796;-77
2022/09/04 09:48:27;;;;;;;2.65;2.22;;;26.50;97.70;;;;;;7338405;19;110119;-77
2022/09/04 09:51:50;;;;;;;7.20;2.03;;;26.60;97.50;;;;;;7337147;19;110862;-77
2022/09/04 09:54:49;;;;;;;2.92;1.88;;;26.70;97.20;;;;;;7337756;19;110378;-76
2022/09/04 09:57:49;;;;;;;4.85;1.88;;;26.80;96.60;;;;;;7338588;19;112238;-77
2022/09/04 10:00:18;;;;;;;2.55;1.67;;;26.90;96.30;;;;;;7338594;19;109399;-77
2022/09/04 10:03:26;;;;;;;4.80;2.00;;;27.00;96.20;;;;;;7339760;19;110568;-76
2022/09/04 10:06:26;;;;;;;2.42;1.85;;;27.10;96.20;;;;;;7338440;19;109317;-76
2022/09/04 10:09:29;;;;;;;3.47;1.70;;;27.30;95.80;;;;;;7338557;19;110350;-77
2022/09/04 10:11:58;;;;;;;5.05;1.50;;;27.40;94.40;;;;;;7335669;19;111533;-77
2022/09/04 10:15:04;;;;;;;2.22;1.67;;;27.40;94.70;;;;;;7337945;19;110043;-77
2022/09/04 10:18:12;;;;;;;2.90;1.60;;;27.60;94.20;;;;;;7337488;19;109964;-76
2022/09/04 10:21:09;;;;;;;6.00;1.65;;;27.50;94.10;;;;;;7337498;19;114722;-77
2022/09/04 10:24:04;;;;;;;2.00;1.40;;;27.60;93.80;;;;;;7337228;19;109500;-77
2022/09/04 10:27:07;;;;;;;4.65;1.38;;;27.70;93.40;;;;;;7341605;19;113099;-76
2022/09/04 10:30:13;;;;;;;2.83;1.50;;;27.80;92.70;;;;;;7346493;19;111040;-77
2022/09/04 10:33:03;;;;;;;4.18;1.50;;;27.80;92.30;;;;;;7336659;19;111387;-77
2022/09/04 10:35:40;;;;;;;2.90;1.25;;;27.90;93.10;;;;;;7337673;19;111163;-77
2022/09/04 10:38:13;;;;;;;6.30;1.40;;;28.00;92.30;;;;;;7334508;19;110822;-77
2022/09/04 10:41:14;;;;;;;2.90;1.40;;;28.20;92.10;;;;;;7336144;19;110101;-78
2022/09/04 10:44:04;;;;;;;2.72;1.27;;;28.40;92.20;;;;;;7335450;19;110661;-77
2022/09/04 10:46:43;;;;;;;2.80;1.35;;;28.50;92.00;;;;;;7336740;19;110013;-77
2022/09/04 10:49:30;;;;;;;3.20;1.40;;;28.50;91.20;;;;;;7335321;19;110741;-78
2022/09/04 10:51:58;;;;;;;3.75;1.48;;;28.60;91.30;;;;;;7335161;19;110457;-78
2022/09/04 10:54:44;;;;;;;1.95;1.30;;;28.80;90.90;;;;;;7341448;19;109420;-78
2022/09/04 10:57:55;;;;;;;2.03;1.10;;;28.80;90.40;;;;;;7336771;19;111716;-77
2022/09/04 11:00:49;;;;;;;1.38;1.02;;;28.80;89.90;;;;;;7334641;19;110600;-79
2022/09/04 11:03:22;;;;;;;3.92;1.10;;;28.90;87.10;;;;;;7336799;19;110473;-77
2022/09/04 11:06:24;;;;;;;2.95;0.70;;;29.00;87.20;;;;;;7336467;19;112470;-78
2022/09/04 11:09:27;;;;;;;2.78;0.50;;;29.10;84.00;;;;;;7337028;19;109664;-78
2022/09/04 11:12:15;;;;;;;1.15;0.60;;;29.10;79.70;;;;;;7334698;19;110280;-78
2022/09/04 11:14:51;;;;;;;0.50;0.40;;;29.20;76.00;;;;;;7337228;19;111419;-79
2022/09/04 11:17:45;;;;;;;1.47;0.60;;;29.20;75.00;;;;;;7341286;19;112339;-79
2022/09/04 11:21:00;;;;;;;0.80;0.60;;;29.20;73.40;;;;;;7334194;19;112381;-78
2022/09/04 11:23:38;;;;;;;1.98;0.65;;;29.20;71.90;;;;;;7335747;19;110430;-79
2022/09/04 11:26:53;;;;;;;2.20;0.90;;;29.20;75.40;;;;;;7335436;19;110797;-78
2022/09/04 11:30:01;;;;;;;5.82;0.65;;;29.50;71.90;;;;;;7335519;19;112550;-79
2022/09/04 11:32:43;;;;;;;3.72;0.60;;;29.50;67.40;;;;;;7332477;19;109223;-78
2022/09/04 11:35:51;;;;;;;1.20;0.80;;;29.40;67.00;;;;;;7335723;19;113688;-79
2022/09/04 11:38:24;;;;;;;;;;;29.40;68.50;;;;;;7335520;19;112045;-78
2022/09/04 11:40:57;;;;;;;2.20;0.80;;;29.40;68.80;;;;;;7338480;19;109719;-78
2022/09/04 11:43:45;;;;;;;1.40;0.68;;;29.50;68.70;;;;;;7340354;19;110456;-78
2022/09/04 11:46:25;;;;;;;1.67;0.55;;;29.50;67.30;;;;;;7335598;19;111735;-77
2022/09/04 11:49:29;;;;;;;1.80;0.60;;;29.60;67.30;;;;;;7336296;19;110016;-78
2022/09/04 11:52:02;;;;;;;2.08;0.70;;;29.70;66.90;;;;;;7332032;19;110267;-76
2022/09/04 11:55:07;;;;;;;2.22;0.80;;;29.70;67.20;;;;;;7334696;19;109630;-78
2022/09/04 11:57:58;;;;;;;1.80;0.90;;;29.80;64.80;;;;;;7334985;19;110347;-76
2022/09/04 12:00:33;;;;;;;3.67;0.75;;;29.80;65.20;;;;;;7333059;19;110816;-78
2022/09/04 12:03:12;;;;;;;5.47;1.23;;;29.70;65.10;;;;;;7338486;19;109760;-78
2022/09/04 12:06:05;;;;;;;3.83;0.80;;;29.80;66.50;;;;;;7338045;19;110433;-79
2022/09/04 12:08:47;;;;;;;4.40;0.80;;;29.90;65.00;;;;;;7344261;19;111296;-78
2022/09/04 12:11:35;;;;;;;3.78;0.60;;;30.00;63.50;;;;;;7337578;19;110421;-78
2022/09/04 12:14:27;;;;;;;3.33;0.57;;;30.10;61.50;;;;;;7338505;19;111220;-76
2022/09/04 12:17:32;;;;;;;5.72;0.70;;;30.20;59.50;;;;;;7337408;19;109414;-81
2022/09/04 12:20:13;;;;;;;2.17;0.80;;;30.20;58.80;;;;;;7337658;19;113117;-80
2022/09/04 12:23:18;;;;;;;3.08;0.70;;;30.30;59.40;;;;;;7338857;19;111497;-76
2022/09/04 12:26:22;;;;;;;2.45;0.77;;;30.50;59.00;;;;;;7338216;19;109608;-78
2022/09/04 12:29:27;;;;;;;2.28;0.65;;;30.60;58.70;;;;;;7334571;19;109935;-78
2022/09/04 12:32:21;;;;;;;4.03;0.68;;;30.60;58.80;;;;;;7335501;19;111617;-78
2022/09/04 12:35:10;;;;;;;1.98;0.80;;;30.70;59.10;;;;;;7339478;19;110712;-78
2022/09/04 12:38:01;;;;;;;2.22;0.80;;;30.80;58.80;;;;;;7333013;19;112108;-78
2022/09/04 12:40:40;;;;;;;3.22;0.63;;;31.00;59.00;;;;;;7337730;19;110344;-79
2022/09/04 12:43:22;;;;;;;1.90;0.73;;;31.20;58.70;;;;;;7335967;19;110086;-79
2022/09/04 12:46:23;;;;;;;1.35;0.70;;;31.30;57.50;;;;;;7336092;19;113485;-78
2022/09/04 12:49:01;;;;;;;1.92;0.70;;;31.30;56.60;;;;;;7337861;19;110425;-78
2022/09/04 12:51:47;;;;;;;1.77;0.70;;;31.30;56.80;;;;;;7336540;19;110361;-80
2022/09/04 12:54:24;;;;;;;2.60;0.70;;;31.40;57.10;;;;;;7336595;19;111514;-78
2022/09/04 12:57:13;;;;;;;2.35;0.65;;;31.60;57.10;;;;;;7338055;19;109325;-79
2022/09/04 13:00:17;;;;;;;2.28;0.98;;;31.70;56.10;;;;;;7340614;19;112934;-85
2022/09/04 13:03:05;;;;;;;2.70;0.88;;;31.70;55.10;;;;;;7333850;19;110651;-90
2022/09/04 13:06:02;;;;;;;3.35;0.70;;;32.00;56.10;;;;;;7335516;19;109745;-88
2022/09/04 13:09:00;;;;;;;6.63;1.13;;;32.30;55.30;;;;;;7337177;19;111597;-88
2022/09/04 13:11:36;;;;;;;4.60;1.00;;;32.40;56.00;;;;;;7338956;19;110777;-91
2022/09/04 13:14:41;;;;;;;2.20;0.80;;;32.60;55.90;;;;;;7342024;19;109665;-89
2022/09/04 13:17:29;;;;;;;3.58;0.82;;;32.70;55.90;;;;;;7343344;19;111504;-84
2022/09/04 13:20:19;;;;;;;2.72;0.80;;;32.70;55.00;;;;;;7343503;19;109527;-87
2022/09/04 13:23:03;;;;;;;1.48;0.70;;;32.70;54.80;;;;;;7340613;19;112164;-83
2022/09/04 13:26:09;;;;;;;3.95;0.90;;;32.50;54.70;;;;;;7347704;19;110529;-88
2022/09/04 13:28:44;;;;;;;3.20;0.70;;;32.50;55.80;;;;;;7344155;19;110464;-86
2022/09/04 13:31:44;;;;;;;2.35;0.80;;;32.60;56.00;;;;;;7341888;19;111191;-87
2022/09/04 13:34:15;;;;;;;2.15;0.80;;;32.80;56.00;;;;;;7342535;19;109852;-85
2022/09/04 13:37:05;;;;;;;2.58;0.90;;;32.80;55.50;;;;;;7339766;19;111364;-89
2022/09/04 13:39:59;;;;;;;2.65;0.90;;;32.80;55.40;;;;;;7342612;19;110100;-88
2022/09/04 13:42:53;;;;;;;2.03;0.60;;;32.80;55.80;;;;;;7340372;19;110728;-85
2022/09/04 13:45:31;;;;;;;3.65;0.98;;;32.70;55.40;;;;;;7341058;19;109797;-81
2022/09/04 13:48:13;;;;;;;5.55;0.82;;;32.70;54.30;;;;;;7345819;19;111575;-83
2022/09/04 13:50:54;;;;;;;1.85;0.80;;;32.60;54.80;;;;;;7342173;19;110497;-86
2022/09/04 13:53:32;;;;;;;2.10;1.13;;;32.50;54.40;;;;;;7339940;19;111508;-87
2022/09/04 13:56:05;;;;;;;3.42;1.00;;;32.30;54.90;;;;;;7339350;19;110243;-81
2022/09/04 13:58:50;;;;;;;4.65;0.82;;;32.20;55.30;;;;;;7341219;19;109523;-88
2022/09/04 14:01:24;;;;;;;3.95;1.10;;;32.30;56.00;;;;;;7341508;19;110666;-87
2022/09/04 14:03:57;;;;;;;2.90;0.90;;;32.40;56.00;;;;;;7340803;19;109853;-85
2022/09/04 14:06:28;;;;;;;4.35;1.00;;;32.40;55.60;;;;;;7342422;19;110411;-89
2022/09/04 14:08:59;;;;;;;2.03;0.80;;;32.40;55.50;;;;;;7342556;19;111626;-87
2022/09/04 14:11:56;;;;;;;5.30;1.00;;;32.40;55.40;;;;;;7345851;19;109952;-87
2022/09/04 14:14:58;;;;;;;1.58;0.85;;;32.50;55.40;;;;;;7342007;19;114347;-84
2022/09/04 14:17:39;;;;;;;1.73;0.82;;;32.40;54.70;;;;;;7341900;19;109754;-83
2022/09/04 14:20:17;;;;;;;1.95;0.95;;;32.30;53.80;;;;;;7342391;19;110386;-85
2022/09/04 14:23:05;;;;;;;3.97;0.82;;;32.20;53.60;;;;;;7338645;19;111132;-84
2022/09/04 14:25:49;;;;;;;4.47;0.88;;;32.10;54.00;;;;;;7341967;19;111055;-88
2022/09/04 14:28:39;;;;;;;3.15;1.05;;;32.10;54.40;;;;;;7338689;19;110748;-84